createdAt,value
2018-05-29T00:00:25.830Z,21.51
2018-05-29T00:02:53.435Z,21.45
2018-05-29T00:05:21.047Z,21.40
2018-05-29T00:07:48.679Z,21.34
2018-05-29T00:10:16.271Z,21.31
2018-05-29T00:12:43.935Z,21.27
2018-05-29T00:15:11.530Z,21.23
2018-05-29T00:17:39.138Z,21.25
2018-05-29T00:20:06.776Z,21.22
2018-05-29T00:22:34.382Z,21.11
2018-05-29T00:25:02.023Z,21.15
2018-05-29T00:27:29.646Z,21.09
2018-05-29T00:29:57.300Z,21.10
2018-05-29T00:32:24.925Z,21.06
2018-05-29T00:34:52.527Z,21.08
2018-05-29T00:37:20.155Z,21.05
2018-05-29T00:39:47.789Z,21.02
2018-05-29T00:42:15.390Z,20.96
2018-05-29T00:44:43.028Z,20.94
2018-05-29T00:47:10.643Z,20.93
2018-05-29T00:49:38.310Z,20.91
2018-05-29T00:52:05.914Z,20.92
2018-05-29T00:54:33.568Z,20.89
2018-05-29T00:57:01.196Z,20.90
2018-05-29T00:59:28.806Z,20.93
2018-05-29T01:01:56.455Z,20.93
2018-05-29T01:04:24.082Z,20.94
2018-05-29T01:06:51.702Z,20.96
2018-05-29T01:09:19.344Z,20.96
2018-05-29T01:11:46.961Z,20.96
2018-05-29T01:14:14.591Z,20.97
2018-05-29T01:16:42.208Z,20.94
2018-05-29T01:19:09.810Z,20.88
2018-05-29T01:21:37.445Z,20.80
2018-05-29T01:24:05.047Z,20.74
2018-05-29T01:26:32.680Z,20.69
2018-05-29T01:29:00.289Z,20.74
2018-05-29T01:31:27.907Z,20.73
2018-05-29T01:33:55.527Z,20.70
2018-05-29T01:36:23.146Z,20.72
2018-05-29T01:38:50.779Z,20.73
2018-05-29T01:41:18.388Z,20.69
2018-05-29T01:43:45.987Z,20.66
2018-05-29T01:46:13.615Z,20.56
2018-05-29T01:48:41.215Z,20.58
2018-05-29T01:51:08.838Z,20.61
2018-05-29T01:53:36.453Z,20.62
2018-05-29T01:56:04.066Z,20.56
2018-05-29T01:58:31.700Z,20.53
2018-05-29T02:00:59.310Z,20.55
2018-05-29T02:03:26.945Z,20.54
2018-05-29T02:05:54.557Z,20.47
2018-05-29T02:08:22.188Z,20.48
2018-05-29T02:10:49.800Z,20.46
2018-05-29T02:13:17.402Z,20.38
2018-05-29T02:15:45.125Z,20.36
2018-05-29T02:18:12.726Z,20.35
2018-05-29T02:20:40.526Z,20.33
2018-05-29T02:23:08.147Z,20.32
2018-05-29T02:25:35.753Z,20.32
2018-05-29T02:28:03.390Z,20.33
2018-05-29T02:30:30.991Z,20.28
2018-05-29T02:32:58.635Z,20.28
2018-05-29T02:35:26.251Z,20.28
2018-05-29T02:37:53.869Z,20.25
2018-05-29T02:40:21.499Z,20.21
2018-05-29T02:42:49.119Z,20.20
2018-05-29T02:45:16.754Z,20.21
2018-05-29T02:47:44.368Z,20.19
2018-05-29T02:50:11.980Z,20.20
2018-05-29T02:52:39.608Z,20.17
2018-05-29T02:55:07.233Z,20.17
2018-05-29T02:57:34.857Z,20.07
2018-05-29T03:00:02.520Z,20.08
2018-05-29T03:02:30.135Z,20.05
2018-05-29T03:04:57.799Z,20.06
2018-05-29T03:07:25.419Z,20.01
2018-05-29T03:09:53.160Z,20.04
2018-05-29T03:12:20.763Z,20.06
2018-05-29T03:14:48.375Z,20.09
2018-05-29T03:17:16.044Z,20.10
2018-05-29T03:19:43.650Z,20.09
2018-05-29T03:22:11.270Z,20.10
2018-05-29T03:24:38.902Z,20.06
2018-05-29T03:27:06.520Z,19.98
2018-05-29T03:29:34.184Z,20.06
2018-05-29T03:32:01.824Z,19.99
2018-05-29T03:34:29.515Z,19.97
2018-05-29T03:36:57.102Z,20.02
2018-05-29T03:39:24.714Z,19.97
2018-05-29T03:41:52.345Z,20.05
2018-05-29T03:44:19.951Z,20.06
2018-05-29T03:46:47.778Z,20.07
2018-05-29T03:49:15.477Z,20.05
2018-05-29T03:51:43.116Z,20.06
2018-05-29T03:54:10.754Z,20.05
2018-05-29T03:56:38.347Z,20.06
2018-05-29T03:59:06.844Z,20.08
2018-05-29T04:01:34.921Z,20.12
2018-05-29T04:04:02.844Z,20.03
2018-05-29T04:06:30.508Z,20.06
2018-05-29T04:08:58.226Z,20.09
2018-05-29T04:11:27.558Z,20.12
2018-05-29T04:13:55.193Z,20.18
2018-05-29T04:16:22.864Z,20.17
2018-05-29T04:18:50.551Z,20.23
2018-05-29T04:21:18.249Z,20.27
2018-05-29T04:23:45.898Z,20.32
2018-05-29T04:26:13.513Z,20.34
2018-05-29T04:28:41.112Z,20.38
2018-05-29T04:31:08.764Z,20.45
2018-05-29T04:33:36.443Z,20.47
2018-05-29T04:36:04.077Z,20.50
2018-05-29T04:38:31.691Z,20.49
2018-05-29T04:40:59.319Z,20.51
2018-05-29T04:43:26.942Z,20.50
2018-05-29T04:45:54.575Z,20.40
2018-05-29T04:48:22.192Z,20.40
2018-05-29T04:50:49.837Z,20.43
2018-05-29T04:53:17.442Z,20.47
2018-05-29T04:55:45.073Z,20.57
2018-05-29T04:58:12.686Z,20.66
2018-05-29T05:00:40.312Z,20.70
2018-05-29T05:03:07.935Z,20.74
2018-05-29T05:05:35.561Z,20.83
2018-05-29T05:08:03.185Z,20.90
2018-05-29T05:10:30.785Z,20.99
2018-05-29T05:12:58.422Z,21.03
2018-05-29T05:15:26.036Z,20.99
2018-05-29T05:17:53.638Z,21.05
2018-05-29T05:20:21.268Z,21.07
2018-05-29T05:22:51.921Z,21.16
2018-05-29T05:25:19.554Z,21.15
2018-05-29T05:27:47.166Z,21.26
2018-05-29T05:30:14.790Z,21.37
2018-05-29T05:32:42.500Z,21.42
2018-05-29T05:35:10.097Z,21.44
2018-05-29T05:37:37.736Z,21.54
2018-05-29T05:40:05.345Z,21.58
2018-05-29T05:42:32.991Z,21.65
2018-05-29T05:45:00.749Z,21.74
2018-05-29T05:47:28.358Z,21.83
2018-05-29T05:49:56.029Z,21.91
2018-05-29T05:52:23.642Z,22.01
2018-05-29T05:54:51.262Z,22.07
2018-05-29T05:57:18.878Z,22.13
2018-05-29T05:59:46.503Z,22.14
2018-05-29T06:02:14.160Z,22.19
2018-05-29T06:04:41.775Z,22.27
2018-05-29T06:07:09.403Z,22.41
2018-05-29T06:09:37.023Z,22.46
2018-05-29T06:12:04.663Z,22.58
2018-05-29T06:14:32.266Z,22.64
2018-05-29T06:17:02.073Z,22.83
2018-05-29T06:19:29.692Z,22.96
2018-05-29T06:21:57.293Z,22.97
2018-05-29T06:24:24.977Z,23.03
2018-05-29T06:26:52.544Z,23.07
2018-05-29T06:29:20.386Z,23.27
2018-05-29T06:31:48.001Z,23.33
2018-05-29T06:34:15.629Z,23.33
2018-05-29T06:36:43.258Z,23.38
2018-05-29T06:39:10.876Z,23.46
2018-05-29T06:41:38.529Z,23.57
2018-05-29T06:44:06.141Z,23.52
2018-05-29T06:46:33.756Z,23.61
2018-05-29T06:49:01.386Z,23.68
2018-05-29T06:51:28.996Z,23.74
2018-05-29T06:53:56.678Z,23.77
2018-05-29T06:56:24.275Z,23.81
2018-05-29T06:58:51.895Z,23.90
2018-05-29T07:01:19.536Z,24.00
2018-05-29T07:03:47.150Z,24.02
2018-05-29T07:06:14.871Z,24.21
2018-05-29T07:08:42.469Z,24.34
2018-05-29T07:11:10.629Z,24.40
2018-05-29T07:13:38.240Z,24.41
2018-05-29T07:16:05.866Z,24.47
2018-05-29T07:18:33.519Z,24.64
2018-05-29T07:21:01.153Z,24.67
2018-05-29T07:23:28.780Z,24.79
2018-05-29T07:25:56.385Z,24.83
2018-05-29T07:28:24.115Z,24.88
2018-05-29T07:30:51.925Z,24.91
2018-05-29T07:33:19.521Z,24.91
2018-05-29T07:35:47.134Z,25.04
2018-05-29T07:38:14.819Z,25.02
2018-05-29T07:40:42.452Z,25.16
2018-05-29T07:43:10.060Z,25.16
2018-05-29T07:45:37.909Z,25.19
2018-05-29T07:48:05.522Z,25.31
2018-05-29T07:50:33.134Z,25.52
2018-05-29T07:53:00.785Z,25.55
2018-05-29T07:55:28.391Z,25.38
2018-05-29T07:57:56.057Z,25.52
2018-05-29T08:00:24.506Z,25.61
2018-05-29T08:02:52.588Z,25.67
2018-05-29T08:05:20.200Z,25.89
2018-05-29T08:07:47.807Z,26.02
2018-05-29T08:10:15.435Z,26.12
2018-05-29T08:12:43.053Z,26.06
2018-05-29T08:15:11.200Z,26.11
2018-05-29T08:17:38.805Z,26.16
2018-05-29T08:20:06.447Z,26.05
2018-05-29T08:22:34.049Z,26.29
2018-05-29T08:25:01.669Z,26.40
2018-05-29T08:27:29.303Z,26.47
2018-05-29T08:29:56.951Z,26.69
2018-05-29T08:32:24.578Z,26.59
2018-05-29T08:34:52.179Z,26.42
2018-05-29T08:37:20.209Z,26.32
2018-05-29T08:39:47.844Z,26.30
2018-05-29T08:42:15.452Z,26.42
2018-05-29T08:44:43.094Z,26.57
2018-05-29T08:47:11.017Z,26.74
2018-05-29T08:49:38.674Z,26.93
2018-05-29T08:52:06.290Z,26.98
2018-05-29T08:54:33.941Z,26.97
2018-05-29T08:57:01.565Z,27.11
2018-05-29T08:59:29.213Z,27.26
2018-05-29T09:01:56.835Z,27.20
2018-05-29T09:04:24.450Z,27.15
2018-05-29T09:06:52.204Z,27.18
2018-05-29T09:09:19.815Z,27.25
2018-05-29T09:11:47.771Z,27.46
2018-05-29T09:14:15.363Z,27.39
2018-05-29T09:16:43.026Z,27.54
2018-05-29T09:19:10.829Z,27.69
2018-05-29T09:21:38.604Z,27.66
2018-05-29T09:24:06.225Z,27.70
2018-05-29T09:26:33.832Z,27.59
2018-05-29T09:29:01.687Z,27.55
2018-05-29T09:31:29.455Z,27.62
2018-05-29T09:33:57.123Z,27.74
2018-05-29T09:36:24.833Z,27.75
2018-05-29T09:38:52.584Z,27.85
2018-05-29T09:41:20.214Z,27.95
2018-05-29T09:43:47.817Z,28.19
2018-05-29T09:46:15.632Z,28.30
2018-05-29T09:48:43.261Z,28.10
2018-05-29T09:51:10.885Z,28.26
2018-05-29T09:53:38.515Z,28.32
2018-05-29T09:56:06.117Z,28.24
2018-05-29T09:58:33.755Z,28.24
2018-05-29T10:01:01.575Z,28.31
2018-05-29T10:03:29.464Z,28.46
2018-05-29T10:05:57.089Z,28.51
2018-05-29T10:08:24.706Z,28.57
2018-05-29T10:10:52.343Z,28.69
2018-05-29T10:13:19.972Z,28.66
2018-05-29T10:15:48.127Z,28.70
2018-05-29T10:18:16.076Z,28.79
2018-05-29T10:20:45.470Z,28.86
2018-05-29T10:23:13.242Z,28.83
2018-05-29T10:25:40.848Z,28.78
2018-05-29T10:28:08.471Z,28.80
2018-05-29T10:30:36.075Z,28.88
2018-05-29T10:33:03.879Z,28.94
2018-05-29T10:35:31.494Z,28.96
2018-05-29T10:37:59.146Z,28.87
2018-05-29T10:40:26.744Z,28.94
2018-05-29T10:42:54.343Z,29.06
2018-05-29T10:45:22.340Z,29.23
2018-05-29T10:47:49.951Z,29.06
2018-05-29T10:50:18.563Z,29.21
2018-05-29T10:52:46.436Z,29.40
2018-05-29T10:55:14.103Z,29.29
2018-05-29T10:57:41.723Z,29.30
2018-05-29T11:00:09.389Z,29.35
2018-05-29T11:02:37.014Z,29.53
2018-05-29T11:05:04.610Z,29.68
2018-05-29T11:07:33.141Z,29.72
2018-05-29T11:10:01.286Z,29.65
2018-05-29T11:12:29.559Z,29.82
2018-05-29T11:14:57.299Z,29.84
2018-05-29T11:17:25.097Z,29.80
2018-05-29T11:19:53.269Z,30.01
2018-05-29T11:22:21.241Z,29.96
2018-05-29T11:24:48.851Z,29.76
2018-05-29T11:27:16.921Z,30.08
2018-05-29T11:29:44.849Z,30.04
2018-05-29T11:32:12.810Z,30.09
2018-05-29T11:34:40.677Z,30.30
2018-05-29T11:37:08.284Z,30.36
2018-05-29T11:39:36.142Z,30.51
2018-05-29T11:42:04.585Z,30.55
2018-05-29T11:44:32.231Z,30.54
2018-05-29T11:46:59.838Z,30.55
2018-05-29T11:49:27.495Z,30.64
2018-05-29T11:51:55.103Z,30.65
2018-05-29T11:54:22.741Z,30.72
2018-05-29T11:56:50.672Z,30.62
2018-05-29T11:59:18.658Z,30.68
2018-05-29T12:01:46.300Z,30.55
2018-05-29T12:04:14.099Z,30.42
2018-05-29T12:06:41.739Z,30.24
2018-05-29T12:09:09.335Z,30.46
2018-05-29T12:11:36.973Z,30.27
2018-05-29T12:14:04.592Z,30.09
2018-05-29T12:16:32.192Z,30.06
2018-05-29T12:45:08.057Z,29.78
2018-05-29T12:47:35.659Z,29.90
2018-05-29T12:50:03.266Z,30.23
2018-05-29T12:52:30.887Z,30.42
2018-05-29T12:55:03.580Z,30.71
2018-05-29T12:57:31.554Z,30.83
2018-05-29T12:59:59.186Z,31.13
2018-05-29T13:02:28.090Z,31.49
2018-05-29T13:04:55.704Z,32.00
2018-05-29T13:07:24.241Z,32.36
2018-05-29T13:09:52.221Z,32.62
2018-05-29T13:12:20.156Z,33.58
2018-05-29T13:14:48.203Z,34.13
2018-05-29T13:17:16.018Z,35.12
2018-05-29T13:19:44.010Z,35.70
2018-05-29T13:22:11.625Z,36.33
2018-05-29T13:24:39.223Z,35.80
2018-05-29T13:27:06.905Z,36.15
2018-05-29T13:29:37.699Z,36.68
2018-05-29T13:32:05.365Z,36.57
2018-05-29T13:34:32.966Z,37.56
2018-05-29T13:37:00.615Z,37.41
2018-05-29T13:39:28.350Z,37.94
2018-05-29T13:41:56.656Z,37.68
2018-05-29T13:44:24.646Z,38.29
2018-05-29T13:46:52.264Z,39.16
2018-05-29T13:49:20.179Z,38.62
2018-05-29T13:51:47.767Z,38.04
2018-05-29T13:54:16.034Z,37.13
2018-05-29T13:56:43.688Z,35.87
2018-05-29T13:59:11.288Z,35.62
2018-05-29T14:01:38.939Z,34.71
2018-05-29T14:04:06.638Z,34.08
2018-05-29T14:06:34.309Z,33.31
2018-05-29T14:09:02.008Z,33.01
2018-05-29T14:11:29.721Z,32.75
2018-05-29T14:13:57.377Z,32.38
2018-05-29T14:16:24.983Z,32.00
2018-05-29T14:18:52.630Z,31.77
2018-05-29T14:21:20.383Z,31.46
2018-05-29T14:23:48.546Z,31.36
2018-05-29T14:26:16.142Z,30.87
2018-05-29T14:28:43.758Z,30.63
2018-05-29T14:31:11.447Z,30.58
2018-05-29T14:33:39.188Z,30.25
2018-05-29T14:36:07.299Z,29.84
2018-05-29T14:38:41.430Z,29.65
2018-05-29T14:41:09.817Z,29.60
2018-05-29T14:43:38.243Z,29.45
2018-05-29T14:46:05.852Z,29.50
2018-05-29T14:48:33.473Z,29.32
2018-05-29T14:51:01.279Z,29.27
2018-05-29T14:53:28.899Z,29.14
2018-05-29T14:55:56.545Z,28.84
2018-05-29T14:58:24.193Z,28.59
2018-05-29T15:00:52.009Z,28.26
2018-05-29T15:03:19.612Z,27.94
2018-05-29T15:05:47.240Z,27.81
2018-05-29T15:08:15.951Z,27.62
2018-05-29T15:10:43.592Z,27.43
2018-05-29T15:13:11.217Z,27.42
2018-05-29T15:15:38.873Z,27.45
2018-05-29T15:18:06.753Z,27.29
2018-05-29T15:20:34.833Z,27.26
2018-05-29T15:23:04.085Z,27.23
2018-05-29T15:25:32.155Z,27.06
2018-05-29T15:28:02.932Z,27.09
2018-05-29T15:30:31.013Z,27.29
2018-05-29T15:32:59.292Z,27.06
2018-05-29T15:35:28.332Z,27.08
2018-05-29T15:37:56.256Z,27.02
2018-05-29T15:40:24.247Z,26.97
2018-05-29T15:42:52.400Z,27.04
2018-05-29T15:45:20.478Z,27.03
2018-05-29T15:47:48.441Z,27.01
2018-05-29T15:50:17.534Z,27.00
2018-05-29T15:52:45.402Z,27.07
2018-05-29T15:55:13.440Z,27.15
2018-05-29T15:57:41.552Z,27.19
2018-05-29T16:00:09.620Z,27.11
2018-05-29T16:02:37.486Z,27.15
2018-05-29T16:05:05.537Z,27.23
2018-05-29T16:07:33.549Z,27.25
2018-05-29T16:10:03.227Z,27.40
2018-05-29T16:12:31.853Z,27.32
2018-05-29T16:14:59.723Z,27.31
2018-05-29T16:17:27.662Z,27.12
2018-05-29T16:19:55.302Z,27.08
2018-05-29T16:22:22.907Z,27.00
2018-05-29T16:24:50.556Z,26.86
2018-05-29T16:27:19.873Z,26.79
2018-05-29T16:29:47.560Z,26.88
2018-05-29T16:32:15.194Z,26.76
2018-05-29T16:34:43.019Z,26.84
2018-05-29T16:37:10.594Z,26.89
2018-05-29T16:39:38.206Z,26.68
2018-05-29T16:42:06.197Z,26.54
2018-05-29T16:44:33.874Z,26.59
2018-05-29T16:47:01.527Z,26.48
2018-05-29T16:49:29.540Z,26.39
2018-05-29T16:51:57.169Z,26.25
2018-05-29T16:54:24.796Z,26.28
2018-05-29T16:56:52.419Z,26.25
2018-05-29T16:59:20.107Z,26.29
2018-05-29T17:01:47.932Z,26.27
2018-05-29T17:04:15.541Z,26.01
2018-05-29T17:06:43.155Z,25.98
2018-05-29T17:09:10.798Z,25.96
2018-05-29T17:11:38.596Z,25.82
2018-05-29T17:14:06.339Z,25.73
2018-05-29T17:16:33.952Z,25.65
2018-05-29T17:19:01.580Z,25.37
2018-05-29T17:21:29.226Z,25.25
2018-05-29T17:23:57.383Z,25.28
2018-05-29T17:26:25.022Z,25.39
2018-05-29T17:28:52.639Z,25.44
2018-05-29T17:31:20.279Z,25.40
2018-05-29T17:33:47.942Z,25.18
2018-05-29T17:36:15.574Z,25.06
2018-05-29T17:38:43.257Z,25.14
2018-05-29T17:41:11.094Z,24.90
2018-05-29T17:43:38.704Z,24.92
2018-05-29T17:46:06.366Z,24.98
2018-05-29T17:48:33.991Z,24.79
2018-05-29T17:51:01.896Z,24.83
2018-05-29T17:53:29.507Z,24.76
2018-05-29T17:55:57.121Z,24.94
2018-05-29T17:58:24.775Z,24.92
2018-05-29T18:00:52.466Z,24.73
2018-05-29T18:03:20.126Z,24.61
2018-05-29T18:05:47.741Z,24.45
2018-05-29T18:08:15.497Z,24.54
2018-05-29T18:10:43.117Z,24.46
2018-05-29T18:13:10.746Z,24.51
2018-05-29T18:15:38.387Z,24.26
2018-05-29T18:18:05.988Z,24.17
2018-05-29T18:20:33.668Z,24.13
2018-05-29T18:23:01.316Z,24.18
2018-05-29T18:25:28.985Z,24.22
2018-05-29T18:27:56.670Z,24.10
2018-05-29T18:30:24.287Z,24.17
2018-05-29T18:32:52.407Z,23.90
2018-05-29T18:35:20.034Z,23.94
2018-05-29T18:37:47.676Z,23.97
2018-05-29T18:40:15.349Z,23.93
2018-05-29T18:42:43.904Z,24.02
2018-05-29T18:45:11.907Z,23.98
2018-05-29T18:47:39.541Z,24.00
2018-05-29T18:50:07.165Z,23.88
2018-05-29T18:52:34.823Z,23.96
2018-05-29T18:55:02.423Z,23.90
2018-05-29T18:57:30.075Z,23.87
2018-05-29T18:59:57.700Z,23.87
2018-05-29T19:02:25.336Z,23.75
2018-05-29T19:04:52.982Z,23.59
2018-05-29T19:07:20.593Z,23.60
2018-05-29T19:09:48.292Z,23.62
2018-05-29T19:12:15.870Z,23.36
2018-05-29T19:14:43.755Z,23.39
2018-05-29T19:17:11.409Z,23.29
2018-05-29T19:19:39.016Z,23.30
2018-05-29T19:22:06.673Z,23.30
2018-05-29T19:24:34.322Z,23.30
2018-05-29T19:27:01.962Z,23.28
2018-05-29T19:29:29.586Z,23.25
2018-05-29T19:31:57.687Z,23.29
2018-05-29T19:34:25.324Z,23.17
2018-05-29T19:36:52.950Z,22.95
2018-05-29T19:39:20.596Z,22.94
2018-05-29T19:41:48.215Z,22.98
2018-05-29T19:44:15.846Z,22.93
2018-05-29T19:46:43.459Z,22.97
2018-05-29T19:49:11.080Z,23.05
2018-05-29T19:51:38.727Z,22.99
2018-05-29T19:54:06.362Z,23.04
2018-05-29T19:56:34.220Z,22.96
2018-05-29T19:59:01.835Z,22.97
2018-05-29T20:01:29.502Z,22.88
2018-05-29T20:03:57.145Z,22.91
2018-05-29T20:06:24.747Z,23.03
2018-05-29T20:08:52.377Z,22.87
2018-05-29T20:11:20.003Z,22.80
2018-05-29T20:13:47.678Z,22.54
2018-05-29T20:16:15.302Z,22.62
2018-05-29T20:18:43.073Z,22.50
2018-05-29T20:21:10.693Z,22.38
2018-05-29T20:23:39.061Z,22.42
2018-05-29T20:26:06.704Z,22.38
2018-05-29T20:28:34.329Z,22.41
2018-05-29T20:31:01.963Z,22.47
2018-05-29T20:33:29.661Z,22.50
2018-05-29T20:35:57.344Z,22.50
2018-05-29T20:38:24.959Z,22.56
2018-05-29T20:40:52.854Z,22.55
2018-05-29T20:43:20.557Z,22.50
2018-05-29T20:45:48.184Z,22.54
2018-05-29T20:48:15.834Z,22.52
2018-05-29T20:50:43.478Z,22.65
2018-05-29T20:53:11.153Z,22.41
2018-05-29T20:55:38.791Z,22.43
2018-05-29T20:58:06.601Z,22.43
2018-05-29T21:00:34.215Z,22.41
2018-05-29T21:03:01.835Z,22.36
2018-05-29T21:05:29.481Z,22.37
2018-05-29T21:07:57.098Z,22.33
2018-05-29T21:10:24.742Z,22.14
2018-05-29T21:12:52.352Z,22.21
2018-05-29T21:15:20.015Z,22.09
2018-05-29T21:17:47.682Z,22.07
2018-05-29T21:20:15.298Z,21.98
2018-05-29T21:22:42.982Z,21.89
2018-05-29T21:25:10.608Z,21.85
2018-05-29T21:27:38.252Z,21.72
2018-05-29T21:30:05.870Z,21.77
2018-05-29T21:32:33.544Z,21.80
2018-05-29T21:35:01.163Z,21.91
2018-05-29T21:37:28.764Z,21.85
2018-05-29T21:39:56.407Z,21.82
2018-05-29T21:42:24.012Z,21.73
2018-05-29T21:44:51.651Z,21.74
2018-05-29T21:47:19.257Z,21.77
2018-05-29T21:49:46.999Z,21.76
2018-05-29T21:52:14.607Z,21.50
2018-05-29T21:54:42.221Z,21.43
2018-05-29T21:57:09.856Z,21.44
2018-05-29T21:59:37.459Z,21.54
2018-05-29T22:02:05.095Z,21.50
2018-05-29T22:04:32.751Z,21.55
2018-05-29T22:07:00.533Z,21.63
2018-05-29T22:09:28.134Z,21.58
2018-05-29T22:11:55.751Z,21.66
2018-05-29T22:14:23.395Z,21.67
2018-05-29T22:16:51.014Z,21.79
2018-05-29T22:19:18.652Z,21.66
2018-05-29T22:21:46.276Z,21.53
2018-05-29T22:24:13.940Z,21.47
2018-05-29T22:26:41.626Z,21.40
2018-05-29T22:29:09.229Z,21.31
2018-05-29T22:31:36.852Z,21.48
2018-05-29T22:34:04.490Z,21.51
2018-05-29T22:36:32.123Z,21.50
2018-05-29T22:38:59.737Z,21.58
2018-05-29T22:41:27.397Z,21.42
2018-05-29T22:43:55.089Z,21.41
2018-05-29T22:46:22.718Z,21.43
2018-05-29T22:48:50.352Z,21.53
2018-05-29T22:51:17.970Z,21.44
2018-05-29T22:53:45.714Z,21.41
2018-05-29T22:56:13.329Z,21.20
2018-05-29T22:58:40.951Z,21.22
2018-05-29T23:01:08.593Z,21.20
2018-05-29T23:03:36.210Z,21.23
2018-05-29T23:06:03.838Z,21.27
2018-05-29T23:08:31.452Z,21.46
2018-05-29T23:10:59.349Z,21.43
2018-05-29T23:13:26.953Z,21.32
2018-05-29T23:15:54.574Z,21.33
2018-05-29T23:18:22.232Z,21.31
2018-05-29T23:20:49.853Z,21.30
2018-05-29T23:23:17.494Z,21.30
2018-05-29T23:25:45.102Z,21.25
2018-05-29T23:28:12.902Z,21.36
2018-05-29T23:30:40.507Z,21.32
2018-05-29T23:33:08.138Z,21.15
2018-05-29T23:35:35.766Z,21.22
2018-05-29T23:38:03.384Z,21.24
2018-05-29T23:40:31.027Z,21.01
2018-05-29T23:42:58.626Z,21.13
2018-05-29T23:45:26.276Z,20.95
2018-05-29T23:47:53.887Z,20.90
2018-05-29T23:50:21.558Z,20.89
2018-05-29T23:52:49.177Z,21.00
2018-05-29T23:55:16.861Z,20.91
2018-05-29T23:57:44.495Z,20.80
